sensor_id;sensor_type;location;lat;lon;timestamp;P1;durP1;ratioP1;P2;durP2;ratioP2
41719;SDS011;27405;53.316;-6.294;2023-04-09T00:01:40;10.55;;;2.80;;
41719;SDS011;27405;53.316;-6.294;2023-04-09T00:04:05;12.13;;;2.78;;
41719;SDS011;27405;53.316;-6.294;2023-04-09T00:06:31;12.63;;;3.42;;
41719;SDS011;27405;53.316;-6.294;2023-04-09T00:08:57;12.70;;;2.72;;
41719;SDS011;27405;53.316;-6.294;2023-04-09T00:11:22;8.45;;;2.30;;
41719;SDS011;27405;53.316;-6.294;2023-04-09T00:13:48;5.10;;;2.22;;
41719;SDS011;27405;53.316;-6.294;2023-04-09T00:16:14;10.77;;;2.47;;
41719;SDS011;27405;53.316;-6.294;2023-04-09T00:18:39;7.72;;;2.38;;
41719;SDS011;27405;53.316;-6.294;2023-04-09T00:21:05;6.30;;;2.33;;
41719;SDS011;27405;53.316;-6.294;2023-04-09T00:23:32;6.88;;;2.15;;
41719;SDS011;27405;53.316;-6.294;2023-04-09T00:25:59;8.20;;;2.55;;
41719;SDS011;27405;53.316;-6.294;2023-04-09T00:28:24;7.00;;;2.33;;
41719;SDS011;27405;53.316;-6.294;2023-04-09T00:30:50;11.30;;;2.92;;
41719;SDS011;27405;53.316;-6.294;2023-04-09T00:33:16;11.98;;;3.05;;
41719;SDS011;27405;53.316;-6.294;2023-04-09T00:35:41;10.82;;;3.10;;
41719;SDS011;27405;53.316;-6.294;2023-04-09T00:38:07;10.73;;;2.92;;
41719;SDS011;27405;53.316;-6.294;2023-04-09T00:40:33;9.40;;;3.13;;
41719;SDS011;27405;53.316;-6.294;2023-04-09T00:42:58;8.35;;;2.90;;
41719;SDS011;27405;53.316;-6.294;2023-04-09T00:45:25;11.23;;;3.10;;
41719;SDS011;27405;53.316;-6.294;2023-04-09T00:47:50;11.23;;;3.03;;
41719;SDS011;27405;53.316;-6.294;2023-04-09T00:50:16;10.68;;;3.33;;
41719;SDS011;27405;53.316;-6.294;2023-04-09T00:52:42;15.85;;;3.20;;
41719;SDS011;27405;53.316;-6.294;2023-04-09T00:55:08;14.07;;;3.35;;
41719;SDS011;27405;53.316;-6.294;2023-04-09T00:57:34;16.38;;;3.83;;
41719;SDS011;27405;53.316;-6.294;2023-04-09T01:00:00;12.15;;;3.42;;
41719;SDS011;27405;53.316;-6.294;2023-04-09T01:02:26;10.95;;;3.13;;
41719;SDS011;27405;53.316;-6.294;2023-04-09T01:04:52;9.35;;;3.28;;
41719;SDS011;27405;53.316;-6.294;2023-04-09T01:07:30;8.35;;;3.13;;
41719;SDS011;27405;53.316;-6.294;2023-04-09T01:15:28;13.52;;;3.55;;
41719;SDS011;27405;53.316;-6.294;2023-04-09T01:18:08;16.45;;;3.60;;
41719;SDS011;27405;53.316;-6.294;2023-04-09T01:20:36;16.88;;;4.18;;
41719;SDS011;27405;53.316;-6.294;2023-04-09T01:23:18;11.98;;;3.78;;
41719;SDS011;27405;53.316;-6.294;2023-04-09T01:29:17;8.85;;;3.55;;
41719;SDS011;27405;53.316;-6.294;2023-04-09T01:31:45;15.30;;;3.90;;
41719;SDS011;27405;53.316;-6.294;2023-04-09T01:34:11;15.93;;;4.22;;
41719;SDS011;27405;53.316;-6.294;2023-04-09T01:36:38;19.20;;;3.92;;
41719;SDS011;27405;53.316;-6.294;2023-04-09T01:39:06;14.07;;;4.00;;
41719;SDS011;27405;53.316;-6.294;2023-04-09T01:41:33;12.80;;;3.38;;
41719;SDS011;27405;53.316;-6.294;2023-04-09T01:44:00;10.18;;;2.90;;
41719;SDS011;27405;53.316;-6.294;2023-04-09T01:46:27;11.40;;;3.20;;
41719;SDS011;27405;53.316;-6.294;2023-04-09T01:48:54;13.07;;;3.70;;
41719;SDS011;27405;53.316;-6.294;2023-04-09T01:51:21;12.48;;;3.67;;
41719;SDS011;27405;53.316;-6.294;2023-04-09T01:53:47;12.88;;;3.13;;
41719;SDS011;27405;53.316;-6.294;2023-04-09T01:56:13;12.40;;;3.70;;
41719;SDS011;27405;53.316;-6.294;2023-04-09T01:58:39;9.90;;;3.00;;
41719;SDS011;27405;53.316;-6.294;2023-04-09T02:03:55;14.65;;;3.92;;
41719;SDS011;27405;53.316;-6.294;2023-04-09T02:09:28;13.40;;;3.20;;
41719;SDS011;27405;53.316;-6.294;2023-04-09T02:11:59;13.02;;;3.10;;
41719;SDS011;27405;53.316;-6.294;2023-04-09T02:14:28;15.93;;;4.07;;
41719;SDS011;27405;53.316;-6.294;2023-04-09T02:16:57;14.45;;;3.47;;
41719;SDS011;27405;53.316;-6.294;2023-04-09T02:19:23;11.02;;;3.00;;
41719;SDS011;27405;53.316;-6.294;2023-04-09T02:21:49;11.88;;;3.70;;
41719;SDS011;27405;53.316;-6.294;2023-04-09T02:24:15;13.40;;;3.55;;
41719;SDS011;27405;53.316;-6.294;2023-04-09T02:26:40;11.00;;;3.40;;
41719;SDS011;27405;53.316;-6.294;2023-04-09T02:29:06;15.88;;;3.63;;
41719;SDS011;27405;53.316;-6.294;2023-04-09T02:31:32;11.52;;;3.10;;
41719;SDS011;27405;53.316;-6.294;2023-04-09T02:33:58;11.77;;;3.58;;
41719;SDS011;27405;53.316;-6.294;2023-04-09T02:36:23;10.15;;;2.85;;
41719;SDS011;27405;53.316;-6.294;2023-04-09T02:38:50;18.10;;;3.25;;
41719;SDS011;27405;53.316;-6.294;2023-04-09T02:41:16;13.20;;;3.28;;
41719;SDS011;27405;53.316;-6.294;2023-04-09T02:43:41;10.68;;;3.40;;
41719;SDS011;27405;53.316;-6.294;2023-04-09T02:46:07;13.30;;;3.05;;
41719;SDS011;27405;53.316;-6.294;2023-04-09T02:48:33;12.30;;;3.17;;
41719;SDS011;27405;53.316;-6.294;2023-04-09T02:50:58;10.70;;;2.95;;
41719;SDS011;27405;53.316;-6.294;2023-04-09T02:53:24;13.43;;;3.20;;
41719;SDS011;27405;53.316;-6.294;2023-04-09T02:55:50;14.00;;;3.35;;
41719;SDS011;27405;53.316;-6.294;2023-04-09T02:58:15;13.25;;;3.33;;
41719;SDS011;27405;53.316;-6.294;2023-04-09T03:00:41;15.63;;;3.65;;
41719;SDS011;27405;53.316;-6.294;2023-04-09T03:03:07;10.18;;;2.63;;
41719;SDS011;27405;53.316;-6.294;2023-04-09T03:05:32;12.93;;;2.80;;
41719;SDS011;27405;53.316;-6.294;2023-04-09T03:07:58;13.18;;;2.88;;
41719;SDS011;27405;53.316;-6.294;2023-04-09T03:10:25;11.13;;;3.13;;
41719;SDS011;27405;53.316;-6.294;2023-04-09T03:12:51;11.80;;;2.60;;
41719;SDS011;27405;53.316;-6.294;2023-04-09T03:15:16;13.68;;;3.00;;
41719;SDS011;27405;53.316;-6.294;2023-04-09T03:17:42;13.23;;;3.13;;
41719;SDS011;27405;53.316;-6.294;2023-04-09T03:20:08;11.95;;;2.72;;
41719;SDS011;27405;53.316;-6.294;2023-04-09T03:22:37;16.00;;;3.45;;
41719;SDS011;27405;53.316;-6.294;2023-04-09T03:25:03;12.02;;;3.20;;
41719;SDS011;27405;53.316;-6.294;2023-04-09T03:27:31;14.02;;;2.97;;
41719;SDS011;27405;53.316;-6.294;2023-04-09T03:29:57;12.38;;;4.28;;
41719;SDS011;27405;53.316;-6.294;2023-04-09T03:32:22;11.00;;;3.22;;
41719;SDS011;27405;53.316;-6.294;2023-04-09T03:34:48;10.27;;;3.30;;
41719;SDS011;27405;53.316;-6.294;2023-04-09T03:37:14;13.10;;;3.20;;
41719;SDS011;27405;53.316;-6.294;2023-04-09T03:39:40;13.75;;;2.97;;
41719;SDS011;27405;53.316;-6.294;2023-04-09T03:42:06;11.20;;;2.83;;
41719;SDS011;27405;53.316;-6.294;2023-04-09T03:44:31;12.10;;;3.15;;
41719;SDS011;27405;53.316;-6.294;2023-04-09T03:46:57;12.95;;;3.45;;
41719;SDS011;27405;53.316;-6.294;2023-04-09T03:49:23;17.15;;;3.47;;
41719;SDS011;27405;53.316;-6.294;2023-04-09T03:51:48;13.93;;;3.60;;
41719;SDS011;27405;53.316;-6.294;2023-04-09T03:54:14;20.55;;;3.72;;
41719;SDS011;27405;53.316;-6.294;2023-04-09T03:56:40;12.98;;;3.40;;
41719;SDS011;27405;53.316;-6.294;2023-04-09T03:59:06;16.08;;;3.53;;
41719;SDS011;27405;53.316;-6.294;2023-04-09T04:01:31;20.08;;;3.97;;
41719;SDS011;27405;53.316;-6.294;2023-04-09T04:03:58;15.82;;;3.50;;
41719;SDS011;27405;53.316;-6.294;2023-04-09T04:06:24;13.25;;;3.90;;
41719;SDS011;27405;53.316;-6.294;2023-04-09T04:08:51;17.73;;;4.10;;
41719;SDS011;27405;53.316;-6.294;2023-04-09T04:11:16;16.00;;;4.05;;
41719;SDS011;27405;53.316;-6.294;2023-04-09T04:13:42;21.02;;;3.85;;
41719;SDS011;27405;53.316;-6.294;2023-04-09T04:16:08;18.05;;;3.97;;
41719;SDS011;27405;53.316;-6.294;2023-04-09T04:18:34;19.08;;;4.20;;
41719;SDS011;27405;53.316;-6.294;2023-04-09T04:21:00;17.48;;;4.68;;
41719;SDS011;27405;53.316;-6.294;2023-04-09T04:23:26;15.30;;;4.47;;
41719;SDS011;27405;53.316;-6.294;2023-04-09T04:25:52;17.63;;;4.65;;
41719;SDS011;27405;53.316;-6.294;2023-04-09T04:28:18;17.90;;;4.30;;
41719;SDS011;27405;53.316;-6.294;2023-04-09T04:30:43;16.17;;;3.88;;
41719;SDS011;27405;53.316;-6.294;2023-04-09T04:33:09;17.20;;;4.10;;
41719;SDS011;27405;53.316;-6.294;2023-04-09T04:35:35;17.92;;;4.20;;
41719;SDS011;27405;53.316;-6.294;2023-04-09T04:38:00;16.90;;;4.25;;
41719;SDS011;27405;53.316;-6.294;2023-04-09T04:40:26;15.70;;;4.10;;
41719;SDS011;27405;53.316;-6.294;2023-04-09T04:42:52;13.32;;;4.60;;
41719;SDS011;27405;53.316;-6.294;2023-04-09T04:45:17;20.63;;;4.88;;
41719;SDS011;27405;53.316;-6.294;2023-04-09T04:47:43;14.95;;;4.63;;
41719;SDS011;27405;53.316;-6.294;2023-04-09T04:50:09;22.27;;;4.75;;
41719;SDS011;27405;53.316;-6.294;2023-04-09T04:52:35;20.48;;;4.53;;
41719;SDS011;27405;53.316;-6.294;2023-04-09T04:55:01;21.58;;;4.90;;
41719;SDS011;27405;53.316;-6.294;2023-04-09T04:57:26;16.85;;;4.55;;
41719;SDS011;27405;53.316;-6.294;2023-04-09T04:59:52;17.35;;;4.78;;
41719;SDS011;27405;53.316;-6.294;2023-04-09T05:02:18;18.42;;;5.03;;
41719;SDS011;27405;53.316;-6.294;2023-04-09T05:04:43;13.95;;;4.10;;
41719;SDS011;27405;53.316;-6.294;2023-04-09T05:07:09;19.38;;;4.97;;
41719;SDS011;27405;53.316;-6.294;2023-04-09T05:09:35;19.75;;;4.88;;
41719;SDS011;27405;53.316;-6.294;2023-04-09T05:12:00;20.05;;;4.85;;
41719;SDS011;27405;53.316;-6.294;2023-04-09T05:14:26;22.48;;;5.30;;
41719;SDS011;27405;53.316;-6.294;2023-04-09T05:16:52;22.55;;;4.78;;
41719;SDS011;27405;53.316;-6.294;2023-04-09T05:19:18;17.38;;;4.53;;
41719;SDS011;27405;53.316;-6.294;2023-04-09T05:21:43;16.88;;;5.05;;
41719;SDS011;27405;53.316;-6.294;2023-04-09T05:24:09;20.15;;;4.97;;
41719;SDS011;27405;53.316;-6.294;2023-04-09T05:26:35;19.33;;;4.53;;
41719;SDS011;27405;53.316;-6.294;2023-04-09T05:29:00;17.58;;;4.60;;
41719;SDS011;27405;53.316;-6.294;2023-04-09T05:31:26;21.20;;;4.97;;
41719;SDS011;27405;53.316;-6.294;2023-04-09T05:33:52;20.60;;;5.00;;
41719;SDS011;27405;53.316;-6.294;2023-04-09T05:36:18;23.83;;;5.45;;
41719;SDS011;27405;53.316;-6.294;2023-04-09T05:38:47;18.33;;;4.50;;
41719;SDS011;27405;53.316;-6.294;2023-04-09T05:41:12;21.75;;;5.13;;
41719;SDS011;27405;53.316;-6.294;2023-04-09T05:43:38;21.80;;;4.95;;
41719;SDS011;27405;53.316;-6.294;2023-04-09T05:46:04;15.60;;;4.53;;
41719;SDS011;27405;53.316;-6.294;2023-04-09T05:48:30;20.70;;;5.25;;
41719;SDS011;27405;53.316;-6.294;2023-04-09T05:50:58;20.40;;;4.47;;
41719;SDS011;27405;53.316;-6.294;2023-04-09T05:53:24;24.02;;;4.80;;
41719;SDS011;27405;53.316;-6.294;2023-04-09T05:55:50;20.90;;;5.53;;
41719;SDS011;27405;53.316;-6.294;2023-04-09T05:58:16;25.48;;;5.88;;
41719;SDS011;27405;53.316;-6.294;2023-04-09T06:00:45;21.20;;;4.32;;
41719;SDS011;27405;53.316;-6.294;2023-04-09T06:03:11;22.83;;;4.85;;
41719;SDS011;27405;53.316;-6.294;2023-04-09T06:05:37;19.02;;;5.07;;
41719;SDS011;27405;53.316;-6.294;2023-04-09T06:08:02;21.60;;;5.57;;
41719;SDS011;27405;53.316;-6.294;2023-04-09T06:10:30;20.75;;;5.25;;
41719;SDS011;27405;53.316;-6.294;2023-04-09T06:12:56;18.25;;;4.93;;
41719;SDS011;27405;53.316;-6.294;2023-04-09T06:15:22;23.83;;;5.10;;
41719;SDS011;27405;53.316;-6.294;2023-04-09T06:17:48;22.17;;;5.10;;
41719;SDS011;27405;53.316;-6.294;2023-04-09T06:20:13;21.15;;;5.32;;
41719;SDS011;27405;53.316;-6.294;2023-04-09T06:22:39;19.65;;;4.80;;
41719;SDS011;27405;53.316;-6.294;2023-04-09T06:25:05;19.10;;;4.85;;
41719;SDS011;27405;53.316;-6.294;2023-04-09T06:27:31;19.90;;;4.68;;
41719;SDS011;27405;53.316;-6.294;2023-04-09T06:29:56;20.17;;;5.20;;
41719;SDS011;27405;53.316;-6.294;2023-04-09T06:32:22;17.63;;;4.72;;
41719;SDS011;27405;53.316;-6.294;2023-04-09T06:34:48;18.80;;;4.88;;
41719;SDS011;27405;53.316;-6.294;2023-04-09T06:37:13;21.58;;;5.00;;
41719;SDS011;27405;53.316;-6.294;2023-04-09T06:39:39;21.50;;;5.07;;
41719;SDS011;27405;53.316;-6.294;2023-04-09T06:42:05;17.52;;;5.15;;
41719;SDS011;27405;53.316;-6.294;2023-04-09T06:44:32;22.90;;;5.40;;
41719;SDS011;27405;53.316;-6.294;2023-04-09T06:46:58;26.27;;;5.20;;
41719;SDS011;27405;53.316;-6.294;2023-04-09T06:49:25;25.35;;;5.40;;
41719;SDS011;27405;53.316;-6.294;2023-04-09T06:51:50;25.02;;;5.72;;
41719;SDS011;27405;53.316;-6.294;2023-04-09T06:54:18;20.23;;;5.15;;
41719;SDS011;27405;53.316;-6.294;2023-04-09T06:56:44;18.27;;;5.43;;
41719;SDS011;27405;53.316;-6.294;2023-04-09T06:59:10;25.45;;;5.93;;
41719;SDS011;27405;53.316;-6.294;2023-04-09T07:01:36;22.23;;;6.10;;
41719;SDS011;27405;53.316;-6.294;2023-04-09T07:04:02;20.45;;;5.75;;
41719;SDS011;27405;53.316;-6.294;2023-04-09T07:06:28;21.98;;;6.25;;
41719;SDS011;27405;53.316;-6.294;2023-04-09T07:08:53;24.05;;;6.30;;
41719;SDS011;27405;53.316;-6.294;2023-04-09T07:11:19;16.75;;;6.00;;
41719;SDS011;27405;53.316;-6.294;2023-04-09T07:13:45;22.40;;;6.00;;
41719;SDS011;27405;53.316;-6.294;2023-04-09T07:16:11;25.85;;;5.72;;
41719;SDS011;27405;53.316;-6.294;2023-04-09T07:18:36;21.13;;;5.85;;
41719;SDS011;27405;53.316;-6.294;2023-04-09T07:21:02;22.33;;;5.32;;
41719;SDS011;27405;53.316;-6.294;2023-04-09T07:23:28;20.27;;;5.85;;
41719;SDS011;27405;53.316;-6.294;2023-04-09T07:25:53;20.05;;;5.38;;
41719;SDS011;27405;53.316;-6.294;2023-04-09T07:28:19;23.25;;;5.65;;
41719;SDS011;27405;53.316;-6.294;2023-04-09T07:30:45;18.88;;;5.70;;
41719;SDS011;27405;53.316;-6.294;2023-04-09T07:33:11;23.98;;;6.47;;
41719;SDS011;27405;53.316;-6.294;2023-04-09T07:35:36;19.80;;;5.20;;
41719;SDS011;27405;53.316;-6.294;2023-04-09T07:38:02;24.50;;;6.22;;
41719;SDS011;27405;53.316;-6.294;2023-04-09T07:40:28;25.75;;;5.80;;
41719;SDS011;27405;53.316;-6.294;2023-04-09T07:42:53;25.98;;;7.07;;
41719;SDS011;27405;53.316;-6.294;2023-04-09T07:45:19;23.48;;;5.80;;
41719;SDS011;27405;53.316;-6.294;2023-04-09T07:47:45;22.73;;;5.75;;
41719;SDS011;27405;53.316;-6.294;2023-04-09T07:50:11;20.90;;;6.07;;
41719;SDS011;27405;53.316;-6.294;2023-04-09T07:52:36;20.85;;;6.22;;
41719;SDS011;27405;53.316;-6.294;2023-04-09T07:55:02;23.95;;;5.95;;
41719;SDS011;27405;53.316;-6.294;2023-04-09T07:57:31;23.63;;;5.50;;
41719;SDS011;27405;53.316;-6.294;2023-04-09T08:02:23;21.17;;;5.80;;
41719;SDS011;27405;53.316;-6.294;2023-04-09T08:04:49;21.02;;;5.85;;
41719;SDS011;27405;53.316;-6.294;2023-04-09T08:07:14;24.75;;;6.10;;
41719;SDS011;27405;53.316;-6.294;2023-04-09T08:09:40;22.90;;;5.43;;
41719;SDS011;27405;53.316;-6.294;2023-04-09T08:12:06;18.10;;;5.28;;
41719;SDS011;27405;53.316;-6.294;2023-04-09T08:14:32;20.50;;;5.50;;
41719;SDS011;27405;53.316;-6.294;2023-04-09T08:16:58;17.27;;;5.10;;
41719;SDS011;27405;53.316;-6.294;2023-04-09T08:19:24;16.92;;;5.35;;
41719;SDS011;27405;53.316;-6.294;2023-04-09T08:21:50;20.88;;;5.70;;
41719;SDS011;27405;53.316;-6.294;2023-04-09T08:24:16;17.65;;;4.93;;
41719;SDS011;27405;53.316;-6.294;2023-04-09T08:26:42;16.58;;;4.82;;
41719;SDS011;27405;53.316;-6.294;2023-04-09T08:29:09;18.02;;;5.22;;
41719;SDS011;27405;53.316;-6.294;2023-04-09T08:31:36;21.15;;;5.57;;
41719;SDS011;27405;53.316;-6.294;2023-04-09T08:34:03;17.30;;;5.40;;
41719;SDS011;27405;53.316;-6.294;2023-04-09T08:36:29;18.13;;;5.00;;
41719;SDS011;27405;53.316;-6.294;2023-04-09T08:38:56;15.15;;;5.10;;
41719;SDS011;27405;53.316;-6.294;2023-04-09T08:41:24;18.10;;;5.20;;
41719;SDS011;27405;53.316;-6.294;2023-04-09T08:46:19;21.60;;;5.85;;
41719;SDS011;27405;53.316;-6.294;2023-04-09T08:48:46;20.60;;;5.53;;
41719;SDS011;27405;53.316;-6.294;2023-04-09T08:51:13;20.48;;;5.53;;
41719;SDS011;27405;53.316;-6.294;2023-04-09T08:53:43;19.50;;;5.93;;
41719;SDS011;27405;53.316;-6.294;2023-04-09T08:56:12;16.90;;;6.15;;
41719;SDS011;27405;53.316;-6.294;2023-04-09T08:58:42;19.05;;;5.30;;
41719;SDS011;27405;53.316;-6.294;2023-04-09T09:03:58;16.08;;;5.43;;
41719;SDS011;27405;53.316;-6.294;2023-04-09T09:06:29;19.75;;;6.18;;
41719;SDS011;27405;53.316;-6.294;2023-04-09T09:09:00;16.92;;;5.57;;
41719;SDS011;27405;53.316;-6.294;2023-04-09T09:11:28;21.33;;;6.00;;
41719;SDS011;27405;53.316;-6.294;2023-04-09T09:13:58;19.90;;;6.20;;
41719;SDS011;27405;53.316;-6.294;2023-04-09T09:16:25;17.75;;;5.57;;
41719;SDS011;27405;53.316;-6.294;2023-04-09T09:18:51;17.40;;;6.10;;
41719;SDS011;27405;53.316;-6.294;2023-04-09T09:21:17;17.50;;;5.80;;
41719;SDS011;27405;53.316;-6.294;2023-04-09T09:23:43;24.38;;;5.75;;
41719;SDS011;27405;53.316;-6.294;2023-04-09T09:26:11;20.02;;;6.57;;
41719;SDS011;27405;53.316;-6.294;2023-04-09T09:28:37;22.35;;;6.45;;
41719;SDS011;27405;53.316;-6.294;2023-04-09T09:31:09;20.60;;;6.28;;
41719;SDS011;27405;53.316;-6.294;2023-04-09T09:33:35;22.35;;;7.00;;
41719;SDS011;27405;53.316;-6.294;2023-04-09T09:36:01;22.48;;;6.90;;
41719;SDS011;27405;53.316;-6.294;2023-04-09T09:38:28;20.58;;;6.75;;
41719;SDS011;27405;53.316;-6.294;2023-04-09T09:40:54;19.65;;;6.85;;
41719;SDS011;27405;53.316;-6.294;2023-04-09T09:43:20;17.65;;;6.50;;
41719;SDS011;27405;53.316;-6.294;2023-04-09T09:45:46;22.33;;;6.63;;
41719;SDS011;27405;53.316;-6.294;2023-04-09T09:48:12;16.40;;;6.40;;
41719;SDS011;27405;53.316;-6.294;2023-04-09T09:50:38;16.90;;;5.80;;
41719;SDS011;27405;53.316;-6.294;2023-04-09T09:53:06;17.27;;;6.25;;
41719;SDS011;27405;53.316;-6.294;2023-04-09T09:55:33;18.65;;;6.60;;
41719;SDS011;27405;53.316;-6.294;2023-04-09T09:58:16;20.25;;;8.07;;
41719;SDS011;27405;53.316;-6.294;2023-04-09T10:00:47;25.15;;;7.30;;
41719;SDS011;27405;53.316;-6.294;2023-04-09T10:03:20;24.52;;;7.40;;
41719;SDS011;27405;53.316;-6.294;2023-04-09T10:05:53;24.30;;;7.35;;
41719;SDS011;27405;53.316;-6.294;2023-04-09T10:08:20;24.75;;;9.02;;
41719;SDS011;27405;53.316;-6.294;2023-04-09T10:10:47;22.42;;;7.78;;
41719;SDS011;27405;53.316;-6.294;2023-04-09T10:13:17;23.23;;;7.68;;
41719;SDS011;27405;53.316;-6.294;2023-04-09T10:15:48;25.15;;;7.72;;
41719;SDS011;27405;53.316;-6.294;2023-04-09T10:18:15;22.40;;;7.18;;
41719;SDS011;27405;53.316;-6.294;2023-04-09T10:20:45;22.27;;;7.40;;
41719;SDS011;27405;53.316;-6.294;2023-04-09T10:23:26;24.63;;;7.32;;
41719;SDS011;27405;53.316;-6.294;2023-04-09T10:26:01;23.50;;;8.18;;
41719;SDS011;27405;53.316;-6.294;2023-04-09T10:28:28;24.35;;;7.45;;
41719;SDS011;27405;53.316;-6.294;2023-04-09T10:30:54;23.80;;;7.32;;
41719;SDS011;27405;53.316;-6.294;2023-04-09T10:33:23;21.40;;;7.47;;
41719;SDS011;27405;53.316;-6.294;2023-04-09T10:35:53;19.95;;;6.75;;
41719;SDS011;27405;53.316;-6.294;2023-04-09T10:38:33;22.15;;;7.13;;
41719;SDS011;27405;53.316;-6.294;2023-04-09T10:43:33;23.67;;;7.57;;
41719;SDS011;27405;53.316;-6.294;2023-04-09T10:46:00;22.77;;;6.75;;
41719;SDS011;27405;53.316;-6.294;2023-04-09T10:48:31;18.20;;;6.13;;
41719;SDS011;27405;53.316;-6.294;2023-04-09T10:50:58;21.88;;;6.25;;
41719;SDS011;27405;53.316;-6.294;2023-04-09T10:53:29;22.33;;;6.55;;
41719;SDS011;27405;53.316;-6.294;2023-04-09T10:55:56;19.40;;;5.97;;
41719;SDS011;27405;53.316;-6.294;2023-04-09T10:58:22;18.73;;;6.07;;
41719;SDS011;27405;53.316;-6.294;2023-04-09T11:00:48;20.65;;;6.05;;
41719;SDS011;27405;53.316;-6.294;2023-04-09T11:03:21;24.10;;;6.70;;
41719;SDS011;27405;53.316;-6.294;2023-04-09T11:08:28;20.65;;;6.32;;
41719;SDS011;27405;53.316;-6.294;2023-04-09T11:10:56;22.08;;;6.80;;
41719;SDS011;27405;53.316;-6.294;2023-04-09T11:13:23;27.80;;;6.85;;
41719;SDS011;27405;53.316;-6.294;2023-04-09T11:15:49;23.17;;;7.00;;
41719;SDS011;27405;53.316;-6.294;2023-04-09T11:18:19;25.10;;;7.15;;
41719;SDS011;27405;53.316;-6.294;2023-04-09T11:20:49;26.60;;;7.30;;
41719;SDS011;27405;53.316;-6.294;2023-04-09T11:23:22;22.33;;;7.03;;
41719;SDS011;27405;53.316;-6.294;2023-04-09T11:25:49;21.73;;;6.93;;
41719;SDS011;27405;53.316;-6.294;2023-04-09T11:28:15;22.90;;;6.85;;
41719;SDS011;27405;53.316;-6.294;2023-04-09T11:30:41;22.00;;;7.00;;
41719;SDS011;27405;53.316;-6.294;2023-04-09T11:33:08;20.92;;;6.47;;
41719;SDS011;27405;53.316;-6.294;2023-04-09T11:35:34;24.55;;;7.32;;
41719;SDS011;27405;53.316;-6.294;2023-04-09T11:38:04;23.15;;;6.10;;
41719;SDS011;27405;53.316;-6.294;2023-04-09T11:40:33;22.25;;;6.97;;
41719;SDS011;27405;53.316;-6.294;2023-04-09T11:42:59;25.23;;;6.70;;
41719;SDS011;27405;53.316;-6.294;2023-04-09T11:45:27;22.67;;;7.03;;
41719;SDS011;27405;53.316;-6.294;2023-04-09T11:47:55;21.60;;;6.30;;
41719;SDS011;27405;53.316;-6.294;2023-04-09T11:50:21;22.17;;;6.70;;
41719;SDS011;27405;53.316;-6.294;2023-04-09T11:52:47;20.65;;;6.32;;
41719;SDS011;27405;53.316;-6.294;2023-04-09T11:55:23;25.77;;;6.40;;
41719;SDS011;27405;53.316;-6.294;2023-04-09T11:57:51;20.55;;;6.22;;
41719;SDS011;27405;53.316;-6.294;2023-04-09T12:00:18;20.15;;;5.72;;
41719;SDS011;27405;53.316;-6.294;2023-04-09T12:02:45;23.85;;;6.32;;
41719;SDS011;27405;53.316;-6.294;2023-04-09T12:05:25;23.40;;;6.33;;
41719;SDS011;27405;53.316;-6.294;2023-04-09T12:08:00;24.05;;;6.07;;
41719;SDS011;27405;53.316;-6.294;2023-04-09T12:10:32;22.05;;;6.35;;
41719;SDS011;27405;53.316;-6.294;2023-04-09T12:13:09;22.27;;;6.37;;
41719;SDS011;27405;53.316;-6.294;2023-04-09T12:15:35;23.75;;;6.03;;
41719;SDS011;27405;53.316;-6.294;2023-04-09T12:18:02;22.38;;;6.05;;
41719;SDS011;27405;53.316;-6.294;2023-04-09T12:20:35;20.50;;;6.13;;
41719;SDS011;27405;53.316;-6.294;2023-04-09T12:23:04;26.40;;;6.38;;
41719;SDS011;27405;53.316;-6.294;2023-04-09T12:25:31;20.98;;;5.53;;
41719;SDS011;27405;53.316;-6.294;2023-04-09T12:27:59;22.77;;;6.13;;
41719;SDS011;27405;53.316;-6.294;2023-04-09T12:30:25;20.00;;;5.90;;
41719;SDS011;27405;53.316;-6.294;2023-04-09T12:32:52;21.15;;;6.05;;
41719;SDS011;27405;53.316;-6.294;2023-04-09T12:35:18;18.17;;;5.88;;
41719;SDS011;27405;53.316;-6.294;2023-04-09T12:37:44;20.98;;;6.20;;
41719;SDS011;27405;53.316;-6.294;2023-04-09T12:40:11;20.48;;;5.82;;
41719;SDS011;27405;53.316;-6.294;2023-04-09T12:42:38;19.83;;;5.88;;
41719;SDS011;27405;53.316;-6.294;2023-04-09T12:45:08;23.85;;;6.18;;
41719;SDS011;27405;53.316;-6.294;2023-04-09T12:47:35;23.15;;;5.75;;
41719;SDS011;27405;53.316;-6.294;2023-04-09T12:50:02;23.55;;;6.40;;
41719;SDS011;27405;53.316;-6.294;2023-04-09T12:52:28;25.30;;;5.93;;
41719;SDS011;27405;53.316;-6.294;2023-04-09T12:54:54;21.13;;;5.65;;
41719;SDS011;27405;53.316;-6.294;2023-04-09T12:57:20;21.80;;;5.82;;
41719;SDS011;27405;53.316;-6.294;2023-04-09T12:59:46;27.83;;;6.13;;
41719;SDS011;27405;53.316;-6.294;2023-04-09T13:02:11;20.13;;;5.32;;
41719;SDS011;27405;53.316;-6.294;2023-04-09T13:04:37;21.35;;;5.78;;
41719;SDS011;27405;53.316;-6.294;2023-04-09T13:07:03;19.10;;;4.97;;
41719;SDS011;27405;53.316;-6.294;2023-04-09T13:09:28;18.85;;;5.28;;
41719;SDS011;27405;53.316;-6.294;2023-04-09T13:11:54;19.30;;;5.13;;
41719;SDS011;27405;53.316;-6.294;2023-04-09T13:14:20;22.02;;;5.35;;
41719;SDS011;27405;53.316;-6.294;2023-04-09T13:16:45;18.52;;;4.97;;
41719;SDS011;27405;53.316;-6.294;2023-04-09T13:19:11;22.55;;;5.43;;
41719;SDS011;27405;53.316;-6.294;2023-04-09T13:21:37;22.75;;;6.25;;
41719;SDS011;27405;53.316;-6.294;2023-04-09T13:24:03;23.65;;;5.72;;
41719;SDS011;27405;53.316;-6.294;2023-04-09T13:26:30;22.77;;;5.75;;
41719;SDS011;27405;53.316;-6.294;2023-04-09T13:28:56;23.35;;;6.50;;
41719;SDS011;27405;53.316;-6.294;2023-04-09T13:31:22;23.38;;;6.05;;
41719;SDS011;27405;53.316;-6.294;2023-04-09T13:33:49;24.60;;;6.25;;
41719;SDS011;27405;53.316;-6.294;2023-04-09T13:36:14;21.17;;;5.93;;
41719;SDS011;27405;53.316;-6.294;2023-04-09T13:38:40;24.98;;;6.53;;
41719;SDS011;27405;53.316;-6.294;2023-04-09T13:41:06;19.17;;;5.70;;
41719;SDS011;27405;53.316;-6.294;2023-04-09T13:43:31;21.77;;;6.00;;
41719;SDS011;27405;53.316;-6.294;2023-04-09T13:45:57;26.83;;;6.20;;
41719;SDS011;27405;53.316;-6.294;2023-04-09T13:48:23;21.75;;;6.82;;
41719;SDS011;27405;53.316;-6.294;2023-04-09T13:50:49;19.73;;;5.85;;
41719;SDS011;27405;53.316;-6.294;2023-04-09T13:53:15;26.00;;;6.03;;
41719;SDS011;27405;53.316;-6.294;2023-04-09T13:55:42;21.52;;;5.47;;
41719;SDS011;27405;53.316;-6.294;2023-04-09T13:58:08;19.13;;;5.28;;
41719;SDS011;27405;53.316;-6.294;2023-04-09T14:00:34;25.83;;;5.60;;
41719;SDS011;27405;53.316;-6.294;2023-04-09T14:03:00;23.52;;;6.43;;
41719;SDS011;27405;53.316;-6.294;2023-04-09T14:05:29;27.58;;;6.95;;
41719;SDS011;27405;53.316;-6.294;2023-04-09T14:07:56;28.63;;;6.00;;
41719;SDS011;27405;53.316;-6.294;2023-04-09T14:10:22;22.73;;;5.63;;
41719;SDS011;27405;53.316;-6.294;2023-04-09T14:12:48;18.55;;;5.78;;
41719;SDS011;27405;53.316;-6.294;2023-04-09T14:15:14;21.75;;;6.25;;
41719;SDS011;27405;53.316;-6.294;2023-04-09T14:17:41;21.30;;;7.28;;
41719;SDS011;27405;53.316;-6.294;2023-04-09T14:20:08;20.75;;;7.13;;
41719;SDS011;27405;53.316;-6.294;2023-04-09T14:22:34;19.50;;;6.57;;
41719;SDS011;27405;53.316;-6.294;2023-04-09T14:24:59;25.73;;;7.28;;
41719;SDS011;27405;53.316;-6.294;2023-04-09T14:27:25;20.90;;;6.10;;
41719;SDS011;27405;53.316;-6.294;2023-04-09T14:29:51;16.15;;;5.20;;
41719;SDS011;27405;53.316;-6.294;2023-04-09T14:32:17;20.75;;;5.75;;
41719;SDS011;27405;53.316;-6.294;2023-04-09T14:34:44;19.90;;;6.32;;
41719;SDS011;27405;53.316;-6.294;2023-04-09T14:37:12;26.73;;;8.25;;
41719;SDS011;27405;53.316;-6.294;2023-04-09T14:39:38;26.48;;;9.65;;
41719;SDS011;27405;53.316;-6.294;2023-04-09T14:42:04;18.63;;;5.38;;
41719;SDS011;27405;53.316;-6.294;2023-04-09T14:44:30;19.00;;;4.80;;
41719;SDS011;27405;53.316;-6.294;2023-04-09T14:46:55;16.40;;;4.63;;